• Join FlightAware (Why Join?)
  • Login
  • US Flag 
09:58AM EDT


 

Airport Tracker/Info


-or-


 

Live Flight TrackerFlight Track Log ✈ N1944E ✈ 14-Oct-2013 ✈ KIDA - KCOD

Flight Track Log - Related Links

Times and Time Zones

All times are in EDT time to prevent confusion due to time zone crossing. See the N1944E flight status page for this flight to view local times or setup timezone preferences in your user account.

Time Position Orientation Groundspeed Altitude Reporting Facility
EDT Latitude Longitude Course Direction KTS MPH feet Rate Location/Type
03:09AM 43.5497 -111.9478 68° East 110 127 9,300  Level Salt Lake Center
03:10AM 43.5639 -111.9114 62° Northeast 112 129 10,600 1,140 Climbing Salt Lake Center
03:11AM 43.5761 -111.8736 66° East 113 130 11,700 1,200 Climbing Salt Lake Center
03:12AM 43.5939 -111.8286 61° Northeast 116 133 13,100 1,260 Climbing Salt Lake Center
03:13AM 43.6056 -111.7864 69° East 120 138 14,300 1,080 Climbing Salt Lake Center
03:14AM 43.6284 -111.7404 73° East  Level Estimated
03:14AM 43.6222 -111.7458 60° Northeast 124 143 15,300  Level Salt Lake Center
03:15AM 43.6397 -111.6936 65° Northeast 130 150 16,700 1,140 Climbing Salt Lake Center
03:16AM 43.6489 -111.6433 76° East 136 157 17,600 900 Climbing Salt Lake Center
03:17AM 43.6653 -111.5953 65° Northeast 142 163 18,600 660 Climbing Salt Lake Center
03:18AM 43.6889 -111.5483 55° Northeast 148 170 19,000 240 Climbing Salt Lake Center
03:19AM 43.7144 -111.4706 66° East 179 206 19,100  Climbing Salt Lake Center
03:20AM 43.7319 -111.3933 73° East 206 237 19,100  Level Salt Lake Center
03:21AM 43.7517 -111.3206 69° East 211 243 19,100  Level Salt Lake Center
03:22AM 43.7750 -111.2372 69° East 210 242 19,100  Level Salt Lake Center
03:23AM 43.7986 -111.1669 65° Northeast 211 243 19,100  Level Salt Lake Center
03:24AM 43.8250 -111.1011 61° Northeast 207 238 19,100  Level Salt Lake Center
03:25AM 43.8544 -111.0222 63° Northeast 206 237 19,100  Level Salt Lake Center
03:26AM 43.8792 -110.9561 63° Northeast 204 235 19,100  Level Salt Lake Center
03:27AM 43.9061 -110.8875 61° Northeast 209 241 19,100  Level Salt Lake Center
03:28AM 43.9264 -110.8064 71° East 210 242 19,100  Level Salt Lake Center
03:29AM 43.9483 -110.7322 68° East 208 239 19,100  Level Salt Lake Center
03:30AM 43.9697 -110.6567 69° East 209 241 19,100  Level Salt Lake Center
03:31AM 43.9906 -110.5814 69° East 208 239 19,100  Level Salt Lake Center
03:32AM 44.0142 -110.5078 66° East 208 239 19,100  Level Salt Lake Center
03:33AM 44.0378 -110.4344 66° East 209 241 19,100  Level Salt Lake Center
03:34AM 44.0603 -110.3606 67° East 208 239 19,100  Level Salt Lake Center
03:35AM 44.0828 -110.2867 67° East 208 239 19,100  Level Salt Lake Center
03:36AM 44.1067 -110.2114 66° East 211 243 19,100  Level Salt Lake Center
03:37AM 44.1303 -110.1367 66° East 212 244 19,100  Level Salt Lake Center
03:38AM 44.1503 -110.0692 68° East 209 241 19,100  Level Salt Lake Center
03:39AM 44.1764 -109.9858 66° East 210 242 19,100  Level Salt Lake Center
03:40AM 44.1981 -109.9131 67° East 212 244 19,100  Level Salt Lake Center
03:41AM 44.2200 -109.8422 67° East 210 242 19,100  Level Salt Lake Center
03:42AM 44.2458 -109.7572 67° East 212 244 19,100  Level Salt Lake Center
03:43AM 44.2675 -109.6839 68° East 213 245 19,100  Level Salt Lake Center
03:44AM 44.2897 -109.6108 67° East 214 246 19,100  Level Salt Lake Center
03:45AM 44.3114 -109.5369 68° East 215 247 19,100  Level Salt Lake Center
03:46AM 44.3333 -109.4622 68° East 215 247 19,100  Level Salt Lake Center
03:47AM 44.3564 -109.3869 67° East 213 245 19,100 -240 Level Salt Lake Center
03:49AM 44.3806 -109.3086 67° East 217 250 18,700 -540 Descending Salt Lake Center
03:50AM 44.4042 -109.2269 68° East 225 259 18,100 -480 Descending Salt Lake Center
03:51AM 44.4292 -109.1469 66° East 225 259 17,800 -480 Descending Salt Lake Center
03:52AM 44.4511 -109.0686 69° East 219 252 17,200 -720 Descending Salt Lake Center
03:53AM 44.4744 -108.9903 67° East 219 252 16,400 -1,140 Descending Salt Lake Center
03:54AM 44.5022 -108.8972 67° East 217 250 15,000 -1,380 Descending Salt Lake Center
03:55AM 44.5233 -108.8211 69° East 214 246 13,700 -1,380 Descending Salt Lake Center
03:56AM 44.5461 -108.7481 66° East 210 242 12,300 -1,320 Descending Salt Lake Center
03:57AM 44.5731 -108.6886 58° Northeast 199 229 11,100 -1,500 Descending Salt Lake Center
03:58AM 44.6208 -108.6961 354° North 182 209 9,300 -1,440 Descending Salt Lake Center
03:59AM 44.6497 -108.7436 311° West 174 200 8,200 -1,020 Descending Salt Lake Center
04:00AM 44.6267 -108.8086 244° Southwest 184 212 7,300 -480 Descending Salt Lake Center
04:01AM 44.6106 -108.8614 247° West 168 193 7,300 -60 Level Salt Lake Center
04:02AM 44.5900 -108.9056 237° Southwest 150 173 7,200 -480 Descending Salt Lake Center
04:03AM 44.5631 -108.9483 229° Southwest 144 166 6,400 -840 Descending Salt Lake Center